createdAt,value
2018-03-20T10:59:13.499Z,580
2018-03-20T11:00:14.070Z,584
2018-03-20T11:01:14.651Z,584
2018-03-20T11:02:15.222Z,580
2018-03-20T11:03:15.791Z,580
2018-03-20T11:04:16.364Z,580
2018-03-20T11:05:16.930Z,584
2018-03-20T11:06:17.497Z,580
2018-03-20T11:07:18.070Z,580
2018-03-20T11:08:18.638Z,580
2018-03-20T11:09:19.207Z,584
2018-03-20T11:10:19.779Z,580
2018-03-20T11:11:20.357Z,580
2018-03-20T11:12:20.927Z,580
2018-03-20T11:13:21.495Z,580
2018-03-20T11:14:22.118Z,580
2018-03-20T11:15:22.688Z,580
2018-03-20T11:16:23.257Z,576
2018-03-20T11:17:23.874Z,576
2018-03-20T11:18:24.455Z,576
2018-03-20T11:19:25.021Z,576
2018-03-20T11:20:25.600Z,572
2018-03-20T11:21:26.169Z,576
2018-03-20T11:22:26.738Z,580
2018-03-20T11:23:27.308Z,572
2018-03-20T11:24:27.880Z,576
2018-03-20T11:25:28.448Z,576
2018-03-20T11:26:29.017Z,576
2018-03-20T11:27:29.586Z,576
2018-03-20T11:28:30.158Z,576
2018-03-20T11:29:30.728Z,576
2018-03-20T11:30:31.297Z,576
2018-03-20T11:31:31.868Z,576
2018-03-20T11:32:32.441Z,572
2018-03-20T11:33:33.007Z,576
2018-03-20T11:34:33.579Z,576
2018-03-20T11:35:34.148Z,572
2018-03-20T11:36:34.717Z,576
2018-03-20T11:37:35.287Z,576
2018-03-20T11:38:35.858Z,576
2018-03-20T11:39:36.444Z,576
2018-03-20T11:40:37.009Z,576
2018-03-20T11:41:37.591Z,572
2018-03-20T11:42:38.161Z,576
2018-03-20T11:43:38.734Z,576
2018-03-20T11:44:39.308Z,572
2018-03-20T11:45:39.874Z,576
2018-03-20T11:46:40.443Z,576
2018-03-20T11:47:41.016Z,572
2018-03-20T11:48:41.586Z,572
2018-03-20T11:49:42.156Z,572
2018-03-20T11:50:42.726Z,576
2018-03-20T11:51:43.295Z,576
2018-03-20T11:52:43.865Z,580
2018-03-20T11:53:44.437Z,580
2018-03-20T11:54:45.006Z,576
2018-03-20T11:55:45.577Z,572
2018-03-20T11:56:46.146Z,572
2018-03-20T11:57:46.717Z,576
2018-03-20T11:58:47.297Z,576
2018-03-20T11:59:47.866Z,576
2018-03-20T12:00:48.439Z,580
2018-03-20T12:01:49.009Z,576
2018-03-20T12:02:49.578Z,576
2018-03-20T12:03:50.160Z,576
2018-03-20T12:04:50.769Z,588
2018-03-20T12:05:51.302Z,584
2018-03-20T12:06:51.872Z,580
2018-03-20T12:07:52.440Z,572
2018-03-20T12:08:53.011Z,572
2018-03-20T12:09:53.593Z,572
2018-03-20T12:10:54.161Z,572
2018-03-20T12:11:54.734Z,564
2018-03-20T12:12:55.304Z,568
2018-03-20T12:13:55.874Z,572
2018-03-20T12:14:56.444Z,572
2018-03-20T12:15:57.012Z,576
2018-03-20T12:16:57.584Z,568
2018-03-20T12:17:58.156Z,568
2018-03-20T12:18:58.772Z,568
2018-03-20T12:19:59.314Z,576
2018-03-20T12:20:59.885Z,580
2018-03-20T12:22:00.454Z,584
2018-03-20T12:23:01.026Z,588
2018-03-20T12:24:01.597Z,564
2018-03-20T12:25:02.167Z,584
2018-03-20T12:26:02.750Z,516
2018-03-20T12:27:03.322Z,576
2018-03-20T12:28:03.892Z,568
2018-03-20T12:29:04.461Z,572
2018-03-20T12:30:05.031Z,576
2018-03-20T12:31:05.602Z,576
2018-03-20T12:32:06.173Z,608
2018-03-20T12:33:06.743Z,604
2018-03-20T12:34:07.313Z,612
2018-03-20T12:35:07.888Z,604
2018-03-20T12:36:08.454Z,356
2018-03-20T12:37:09.027Z,596
2018-03-20T12:38:09.637Z,596
2018-03-20T12:39:10.205Z,592
2018-03-20T12:40:10.775Z,584
2018-03-20T12:41:11.345Z,580
2018-03-20T12:42:11.918Z,564
2018-03-20T12:43:12.488Z,572
2018-03-20T12:44:13.059Z,576
2018-03-20T12:45:13.629Z,572
2018-03-20T12:46:14.200Z,572
2018-03-20T12:47:14.772Z,572
2018-03-20T12:48:15.343Z,572
2018-03-20T12:49:15.915Z,572
2018-03-20T12:50:16.491Z,576
2018-03-20T12:51:17.068Z,576
2018-03-20T12:52:17.638Z,576
2018-03-20T12:53:18.207Z,576
2018-03-20T12:54:18.777Z,576
2018-03-20T12:55:19.349Z,576
2018-03-20T12:56:19.920Z,580
2018-03-20T12:57:20.491Z,588
2018-03-20T12:58:21.073Z,592
2018-03-20T12:59:21.643Z,592
2018-03-20T13:00:22.212Z,592
2018-03-20T13:01:22.784Z,596
2018-03-20T13:02:23.353Z,596
2018-03-20T13:03:23.925Z,600
2018-03-20T13:04:24.498Z,600
2018-03-20T13:05:25.066Z,600
2018-03-20T13:06:25.637Z,600
2018-03-20T13:07:26.212Z,604
2018-03-20T13:08:26.789Z,604
2018-03-20T13:09:27.360Z,604
2018-03-20T13:10:27.931Z,612
2018-03-20T13:11:28.506Z,608
2018-03-20T13:12:29.086Z,612
2018-03-20T13:13:29.659Z,612
2018-03-20T13:14:30.227Z,608
2018-03-20T13:15:30.798Z,616
2018-03-20T13:16:31.368Z,616
2018-03-20T13:17:31.940Z,616
2018-03-20T13:18:32.510Z,616
2018-03-20T13:19:33.083Z,616
2018-03-20T13:20:33.652Z,620
2018-03-20T13:21:34.222Z,620
2018-03-20T13:22:34.795Z,624
2018-03-20T13:23:35.365Z,624
2018-03-20T13:24:35.936Z,624
2018-03-20T13:25:36.507Z,628
2018-03-20T13:26:37.090Z,632
2018-03-20T13:27:37.660Z,636
2018-03-20T13:28:38.230Z,632
2018-03-20T13:29:38.800Z,636
2018-03-20T13:30:39.372Z,636
2018-03-20T13:31:39.944Z,640
2018-03-20T13:32:40.516Z,644
2018-03-20T13:33:41.085Z,644
2018-03-20T13:34:41.722Z,644
2018-03-20T13:35:42.239Z,652
2018-03-20T13:36:42.808Z,648
2018-03-20T13:37:43.381Z,652
2018-03-20T13:38:43.953Z,652
2018-03-20T13:39:44.520Z,656
2018-03-20T13:40:45.092Z,660
2018-03-20T13:41:45.662Z,660
2018-03-20T13:42:46.234Z,664
2018-03-20T13:43:46.866Z,664
2018-03-20T13:44:47.385Z,664
2018-03-20T13:45:47.958Z,664
2018-03-20T13:46:48.527Z,668
2018-03-20T13:47:49.097Z,668
2018-03-20T13:48:49.669Z,676
2018-03-20T13:49:50.244Z,680
2018-03-20T13:50:52.605Z,680
2018-03-20T13:51:51.383Z,684
2018-03-20T13:52:51.957Z,684
2018-03-20T13:53:52.524Z,688
2018-03-20T13:54:53.094Z,688
2018-03-20T13:55:53.665Z,688
2018-03-20T13:56:54.242Z,684
2018-03-20T13:57:54.813Z,688
2018-03-20T13:58:55.379Z,684
2018-03-20T13:59:55.951Z,688
2018-03-20T14:00:56.525Z,692
2018-03-20T14:01:57.095Z,688
2018-03-20T14:02:57.666Z,692
2018-03-20T14:03:58.236Z,696
2018-03-20T14:04:58.806Z,700
2018-03-20T14:05:59.379Z,696
2018-03-20T14:06:59.959Z,700
2018-03-20T14:08:00.531Z,700
2018-03-20T14:09:01.102Z,708
2018-03-20T14:10:01.683Z,712
2018-03-20T14:11:02.255Z,716
2018-03-20T14:12:02.826Z,712
2018-03-20T14:13:03.420Z,716
2018-03-20T14:14:03.982Z,716
2018-03-20T14:15:04.553Z,720
2018-03-20T14:16:05.124Z,716
2018-03-20T14:17:05.694Z,720
2018-03-20T14:18:06.267Z,720
2018-03-20T14:19:06.857Z,724
2018-03-20T14:20:07.434Z,728
2018-03-20T14:21:08.013Z,724
2018-03-20T14:22:08.583Z,728
2018-03-20T14:23:09.154Z,728
2018-03-20T14:24:09.726Z,732
2018-03-20T14:25:10.296Z,732
2018-03-20T14:26:10.878Z,736
2018-03-20T14:27:11.449Z,736
2018-03-20T14:28:12.023Z,740
2018-03-20T14:29:12.598Z,744
2018-03-20T14:30:13.177Z,744
2018-03-20T14:31:13.751Z,748
2018-03-20T14:32:14.323Z,752
2018-03-20T14:33:14.891Z,748
2018-03-20T14:34:15.472Z,752
2018-03-20T14:35:16.045Z,752
2018-03-20T14:36:16.619Z,756
2018-03-20T14:37:17.198Z,760
2018-03-20T14:38:17.769Z,760
2018-03-20T14:39:18.339Z,760
2018-03-20T14:40:18.912Z,764
2018-03-20T14:41:19.486Z,768
2018-03-20T14:42:20.057Z,776
2018-03-20T14:43:20.628Z,776
2018-03-20T14:44:21.198Z,772
2018-03-20T14:45:21.780Z,768
2018-03-20T14:46:22.350Z,780
2018-03-20T14:47:22.920Z,784
2018-03-20T14:48:23.491Z,780
2018-03-20T14:49:24.065Z,788
2018-03-20T14:50:24.645Z,788
2018-03-20T14:51:25.216Z,788
2018-03-20T14:52:25.799Z,784
2018-03-20T14:53:26.372Z,788
2018-03-20T14:54:26.946Z,788
2018-03-20T14:55:27.526Z,792
2018-03-20T14:56:28.151Z,792
2018-03-20T14:57:28.669Z,792
2018-03-20T14:58:29.239Z,796
2018-03-20T14:59:29.813Z,796
2018-03-20T15:00:30.384Z,796
2018-03-20T15:01:30.954Z,784
2018-03-20T15:02:31.524Z,788
2018-03-20T15:03:32.094Z,784
2018-03-20T15:04:32.666Z,792
2018-03-20T15:05:33.237Z,788
2018-03-20T15:06:33.823Z,792
2018-03-20T15:07:34.391Z,796
2018-03-20T15:08:34.961Z,804
2018-03-20T15:09:35.532Z,808
2018-03-20T15:10:36.103Z,816
2018-03-20T15:11:36.675Z,820
2018-03-20T15:12:37.249Z,832
2018-03-20T15:13:37.817Z,852
2018-03-20T15:14:38.387Z,896
2018-03-20T15:15:38.957Z,976
2018-03-20T15:16:39.547Z,1068
2018-03-20T15:17:40.120Z,1176
2018-03-20T15:18:40.696Z,1292
2018-03-20T15:19:41.266Z,1424
2018-03-20T15:20:41.837Z,1564
2018-03-20T15:21:42.414Z,1724
2018-03-20T15:22:42.983Z,1888
2018-03-20T15:23:43.553Z,2056
2018-03-20T15:24:44.126Z,2272
2018-03-20T15:25:44.700Z,2480
2018-03-20T15:26:45.275Z,2696
2018-03-20T15:27:45.846Z,2952
2018-03-20T15:28:46.474Z,3224
2018-03-20T15:29:46.994Z,3496
2018-03-20T15:30:47.567Z,3804
2018-03-20T15:31:48.140Z,4124
2018-03-20T15:32:48.715Z,4476
2018-03-20T15:33:49.287Z,4816
2018-03-20T15:34:49.859Z,5172
2018-03-20T15:35:50.439Z,5520
2018-03-20T15:36:51.010Z,5856
2018-03-20T15:37:51.580Z,6188
2018-03-20T15:38:52.155Z,6500
2018-03-20T15:39:52.728Z,6904
2018-03-20T15:40:53.312Z,7124
2018-03-20T15:41:53.889Z,7456
2018-03-20T15:42:54.463Z,7724
2018-03-20T15:43:55.038Z,7964
2018-03-20T15:44:55.614Z,8228
2018-03-20T15:45:56.190Z,8488
2018-03-20T15:46:56.765Z,8688
2018-03-20T15:47:57.342Z,8904
2018-03-20T15:48:57.916Z,9112
2018-03-20T15:49:58.503Z,9300
2018-03-20T15:50:59.079Z,9516
2018-03-20T15:51:59.656Z,9764
2018-03-20T15:53:00.235Z,9964
2018-03-20T15:54:00.810Z,10132
2018-03-20T15:55:01.386Z,10160
2018-03-20T15:56:01.963Z,10220
2018-03-20T15:57:02.585Z,10280
2018-03-20T15:58:03.128Z,10236
2018-03-20T15:59:03.706Z,10252
2018-03-20T16:00:04.282Z,10244
2018-03-20T16:01:04.859Z,10224
2018-03-20T16:02:05.435Z,10172
2018-03-20T16:03:06.023Z,10140
2018-03-20T16:04:06.603Z,10120
2018-03-20T16:05:07.180Z,10060
2018-03-20T16:06:07.757Z,10040
2018-03-20T16:07:08.333Z,9996
2018-03-20T16:08:08.907Z,9964
2018-03-20T16:09:09.486Z,9888
2018-03-20T16:10:10.060Z,9896
2018-03-20T16:11:10.636Z,9856
2018-03-20T16:12:11.212Z,9808
2018-03-20T16:13:11.789Z,9776
2018-03-20T16:14:12.364Z,9720
2018-03-20T16:15:12.942Z,9648
2018-03-20T16:16:13.517Z,9588
2018-03-20T16:17:14.095Z,9516
2018-03-20T16:18:14.676Z,9444
2018-03-20T16:19:15.247Z,9376
2018-03-20T16:20:15.822Z,9276
2018-03-20T16:21:16.399Z,9212
2018-03-20T16:22:17.015Z,9140
2018-03-20T16:23:17.563Z,9108
2018-03-20T16:24:18.140Z,9032
2018-03-20T16:25:18.717Z,8964
2018-03-20T16:26:19.293Z,8884
2018-03-20T16:27:19.869Z,8828
2018-03-20T16:28:20.447Z,8744
2018-03-20T16:29:21.037Z,8680
2018-03-20T16:30:21.613Z,8592
2018-03-20T16:31:22.201Z,8488
2018-03-20T16:32:22.778Z,8396
2018-03-20T16:33:23.359Z,8268
2018-03-20T16:34:23.934Z,8192
2018-03-20T16:35:24.511Z,8092
2018-03-20T16:36:25.088Z,7952
2018-03-20T16:37:25.665Z,7808
2018-03-20T16:38:26.242Z,7728
2018-03-20T16:39:26.819Z,7604
2018-03-20T16:40:27.396Z,7456
2018-03-20T16:41:27.975Z,7320
2018-03-20T16:42:28.550Z,7160
2018-03-20T16:43:29.127Z,7096
2018-03-20T16:44:29.710Z,6952
2018-03-20T16:45:30.280Z,6796
2018-03-20T16:46:30.855Z,6672
2018-03-20T16:47:31.433Z,6516
2018-03-20T16:48:32.011Z,6424
2018-03-20T16:49:32.589Z,6236
2018-03-20T16:50:33.167Z,6136
2018-03-20T16:51:33.744Z,6008
2018-03-20T16:52:34.321Z,5828
2018-03-20T16:53:34.897Z,5680
2018-03-20T16:54:35.474Z,5552
2018-03-20T16:55:36.052Z,5368
2018-03-20T16:56:36.638Z,5228
2018-03-20T16:57:37.225Z,5076
2018-03-20T16:58:37.803Z,4908
2018-03-20T16:59:38.380Z,4724
2018-03-20T17:00:38.957Z,4544
2018-03-20T17:01:39.535Z,4360
2018-03-20T17:02:40.121Z,4168
2018-03-20T17:03:40.697Z,3984
2018-03-20T17:04:41.290Z,3848
2018-03-20T17:05:41.862Z,3656
2018-03-20T17:06:42.437Z,3616
2018-03-20T17:07:43.025Z,3384
2018-03-20T17:08:43.597Z,3252
2018-03-20T17:09:44.168Z,3136
2018-03-20T17:10:44.741Z,2960
2018-03-20T17:11:45.319Z,2764
2018-03-20T17:12:45.899Z,2588
2018-03-20T17:13:46.475Z,2392
2018-03-20T17:14:47.060Z,2232
2018-03-20T17:15:47.634Z,2108
2018-03-20T17:16:48.209Z,1956
2018-03-20T17:17:48.794Z,1744
2018-03-20T17:18:49.366Z,1468
2018-03-20T17:19:49.938Z,1064
2018-03-20T17:20:50.516Z,700
2018-03-20T17:21:51.095Z,544
2018-03-20T17:22:51.669Z,388
2018-03-20T17:23:52.242Z,232
2018-03-20T17:24:52.817Z,164
2018-03-20T17:25:53.385Z,148
2018-03-20T17:26:53.955Z,132
2018-03-20T17:27:54.525Z,124
2018-03-20T17:28:55.096Z,120
2018-03-20T17:29:55.667Z,112
2018-03-20T17:30:56.282Z,104
2018-03-20T17:31:56.807Z,96
2018-03-20T17:32:57.375Z,92
2018-03-20T17:33:57.944Z,80
2018-03-20T17:34:58.512Z,76
2018-03-20T17:35:59.081Z,68
2018-03-20T17:36:59.652Z,64
2018-03-20T17:38:00.234Z,60
2018-03-20T17:39:00.801Z,56
2018-03-20T17:40:01.373Z,52
2018-03-20T17:41:01.937Z,44
2018-03-20T17:42:02.506Z,40
2018-03-20T17:43:03.074Z,36
2018-03-20T17:44:03.642Z,36
2018-03-20T17:45:04.220Z,32
2018-03-20T17:46:04.787Z,28
2018-03-20T17:47:05.368Z,28
2018-03-20T17:48:05.938Z,24
2018-03-20T17:49:06.506Z,24
2018-03-20T17:50:07.073Z,16
2018-03-20T17:51:07.642Z,16
2018-03-20T17:52:08.208Z,16
2018-03-20T17:53:08.776Z,16
2018-03-20T17:54:09.344Z,8
2018-03-20T17:55:09.909Z,8
2018-03-20T17:56:10.489Z,12
2018-03-20T17:57:11.061Z,8
2018-03-20T17:58:11.622Z,8
2018-03-20T17:59:12.188Z,8
2018-03-20T18:00:12.754Z,8
2018-03-20T18:01:13.320Z,8
2018-03-20T18:02:13.886Z,4
2018-03-20T18:03:14.452Z,4
2018-03-20T18:04:15.019Z,4
2018-03-20T18:05:15.589Z,4
2018-03-20T18:06:16.154Z,0
2018-03-20T18:07:16.721Z,4
2018-03-20T18:08:17.290Z,0
2018-03-20T18:09:17.852Z,0
2018-03-20T18:10:18.430Z,4
2018-03-20T18:11:18.996Z,0
2018-03-20T18:12:19.562Z,0
2018-03-20T18:13:20.130Z,0
2018-03-20T18:14:20.696Z,0
2018-03-20T18:15:21.262Z,0
2018-03-20T18:16:21.828Z,0
2018-03-20T18:17:22.394Z,0
2018-03-20T18:18:22.960Z,0
2018-03-20T18:19:23.525Z,0
2018-03-20T18:20:24.091Z,0
2018-03-20T18:21:24.656Z,0
2018-03-20T18:22:25.221Z,0
2018-03-20T18:23:25.789Z,0
2018-03-20T18:24:26.354Z,0
2018-03-20T18:25:26.920Z,0
2018-03-20T18:26:27.484Z,0
2018-03-20T18:27:28.050Z,0
2018-03-20T18:28:28.615Z,0
2018-03-20T18:29:29.183Z,0
2018-03-20T18:30:29.750Z,0
2018-03-20T18:31:30.314Z,0
2018-03-20T18:32:30.879Z,0
2018-03-20T18:33:31.450Z,0
2018-03-20T18:34:32.050Z,0
2018-03-20T18:35:32.576Z,0
2018-03-20T18:36:33.143Z,0
2018-03-20T18:37:33.709Z,0
2018-03-20T18:38:34.283Z,0
2018-03-20T18:39:34.850Z,0
2018-03-20T18:40:35.415Z,0
2018-03-20T18:41:35.994Z,0
2018-03-20T18:42:36.560Z,0
2018-03-20T18:43:37.126Z,0
2018-03-20T18:44:37.694Z,0
2018-03-20T18:45:38.272Z,0
2018-03-20T18:46:38.837Z,0
2018-03-20T18:47:39.403Z,0
2018-03-20T18:48:39.967Z,0
2018-03-20T18:49:40.545Z,0
2018-03-20T18:50:41.115Z,0
2018-03-20T18:51:41.689Z,0
2018-03-20T18:52:42.256Z,0
2018-03-20T18:53:42.834Z,0
2018-03-20T18:54:43.400Z,0
2018-03-20T18:55:43.965Z,0
2018-03-20T18:56:44.532Z,0
2018-03-20T18:57:45.097Z,0
2018-03-20T18:58:45.661Z,0
2018-03-20T18:59:46.228Z,0
2018-03-20T19:00:46.795Z,0
2018-03-20T19:01:47.363Z,0
2018-03-20T19:02:47.928Z,0
2018-03-20T19:03:48.496Z,0
2018-03-20T19:04:49.065Z,0
2018-03-20T19:05:49.629Z,0
2018-03-20T19:06:50.208Z,0
2018-03-20T19:07:50.807Z,0
2018-03-20T19:08:51.341Z,0
2018-03-20T19:09:51.907Z,0
2018-03-20T19:10:52.476Z,0
2018-03-20T19:11:53.042Z,0
2018-03-20T19:12:53.610Z,0
2018-03-20T19:13:54.175Z,0
2018-03-20T19:14:54.740Z,0
2018-03-20T19:15:55.305Z,0
2018-03-20T19:16:55.869Z,0
2018-03-20T19:17:56.436Z,0
2018-03-20T19:18:57.000Z,0
2018-03-20T19:19:57.565Z,0
2018-03-20T19:20:58.130Z,0
2018-03-20T19:21:58.695Z,0
2018-03-20T19:22:59.261Z,0
2018-03-20T19:23:59.826Z,0
2018-03-20T19:25:00.403Z,0
2018-03-20T19:26:00.971Z,0
2018-03-20T19:27:01.536Z,0
2018-03-20T19:28:02.103Z,0
2018-03-20T19:29:02.667Z,0
2018-03-20T19:30:03.247Z,0
2018-03-20T19:31:03.815Z,0
2018-03-20T19:32:04.376Z,0
2018-03-20T19:33:04.944Z,0
2018-03-20T19:34:05.508Z,0
2018-03-20T19:35:06.080Z,0
2018-03-20T19:36:06.640Z,0
2018-03-20T19:37:07.207Z,0
2018-03-20T19:38:07.772Z,0
2018-03-20T19:39:08.338Z,0
2018-03-20T19:40:08.903Z,0
2018-03-20T19:41:09.468Z,0
2018-03-20T19:42:10.032Z,0
2018-03-20T19:43:10.596Z,0
2018-03-20T19:44:11.192Z,0
2018-03-20T19:45:11.737Z,0
2018-03-20T19:46:12.306Z,0
2018-03-20T19:47:12.878Z,0
2018-03-20T19:48:13.448Z,0
2018-03-20T19:49:14.015Z,0
2018-03-20T19:50:14.579Z,0
2018-03-20T19:51:15.145Z,0
2018-03-20T19:52:15.711Z,0
2018-03-20T19:53:16.277Z,0
2018-03-20T19:54:16.845Z,0
2018-03-20T19:55:17.408Z,0
2018-03-20T19:56:17.973Z,0
2018-03-20T19:57:18.539Z,0
2018-03-20T19:58:19.103Z,0
2018-03-20T19:59:19.668Z,0
2018-03-20T20:00:20.234Z,0
2018-03-20T20:01:20.798Z,0
2018-03-20T20:02:21.364Z,0
2018-03-20T20:03:21.928Z,0
2018-03-20T20:04:22.510Z,0
2018-03-20T20:05:23.070Z,0
2018-03-20T20:06:23.637Z,0
2018-03-20T20:07:24.205Z,0
2018-03-20T20:08:24.778Z,0
2018-03-20T20:09:25.345Z,0
2018-03-20T20:10:25.912Z,0
2018-03-20T20:11:26.480Z,0
2018-03-20T20:12:27.044Z,0
2018-03-20T20:13:27.611Z,0
2018-03-20T20:14:28.207Z,0
2018-03-20T20:15:28.753Z,0
2018-03-20T20:16:29.326Z,0
2018-03-20T20:17:29.897Z,0
2018-03-20T20:18:30.462Z,0
2018-03-20T20:19:31.029Z,0
2018-03-20T20:20:31.596Z,0
2018-03-20T20:21:32.162Z,0
2018-03-20T20:22:32.727Z,0
2018-03-20T20:23:33.294Z,0
2018-03-20T20:24:33.859Z,0
2018-03-20T20:25:34.462Z,0
2018-03-20T20:26:34.988Z,0
2018-03-20T20:27:35.554Z,0
2018-03-20T20:28:36.131Z,0
2018-03-20T20:29:36.697Z,0
2018-03-20T20:30:37.265Z,0
2018-03-20T20:31:37.828Z,0
2018-03-20T20:32:38.394Z,0
2018-03-20T20:33:38.958Z,0
2018-03-20T20:34:39.559Z,0
2018-03-20T20:35:40.109Z,0
2018-03-20T20:36:40.668Z,0
2018-03-20T20:37:41.235Z,0
2018-03-20T20:38:41.800Z,0
2018-03-20T20:39:42.411Z,0
2018-03-20T20:40:42.931Z,0
2018-03-20T20:41:43.506Z,0
2018-03-20T20:42:44.072Z,0
2018-03-20T20:43:44.638Z,0
2018-03-20T20:44:45.205Z,0
2018-03-20T20:45:45.770Z,0
2018-03-20T20:46:46.337Z,0
2018-03-20T20:47:46.901Z,0
2018-03-20T20:48:47.466Z,0
2018-03-20T20:49:48.032Z,0
2018-03-20T20:50:48.597Z,0
2018-03-20T20:51:49.161Z,0
2018-03-20T20:52:49.726Z,0
2018-03-20T20:53:50.291Z,0
2018-03-20T20:54:50.856Z,0
2018-03-20T20:55:51.450Z,0
2018-03-20T20:56:52.024Z,0
2018-03-20T20:57:52.600Z,0
2018-03-20T20:58:53.165Z,0
2018-03-20T20:59:53.732Z,0
2018-03-20T21:00:54.297Z,0
2018-03-20T21:01:54.863Z,0
2018-03-20T21:02:55.456Z,0
2018-03-20T21:03:56.021Z,0
2018-03-20T21:04:56.587Z,0
2018-03-20T21:05:57.153Z,0
2018-03-20T21:06:57.718Z,0
2018-03-20T21:07:58.285Z,0
2018-03-20T21:08:58.863Z,0
2018-03-20T21:09:59.437Z,0
2018-03-20T21:11:00.003Z,0
2018-03-20T21:12:00.567Z,0
2018-03-20T21:13:01.132Z,0
2018-03-20T21:14:01.722Z,0
2018-03-20T21:15:02.298Z,0
2018-03-20T21:16:02.863Z,0
2018-03-20T21:17:03.438Z,0
2018-03-20T21:18:04.013Z,0
2018-03-20T21:19:04.577Z,0
2018-03-20T21:20:05.142Z,0
2018-03-20T21:21:05.718Z,0
2018-03-20T21:22:06.283Z,0
2018-03-20T21:23:06.849Z,0
2018-03-20T21:24:07.414Z,0
2018-03-20T21:25:07.982Z,0
2018-03-20T21:26:08.556Z,0
2018-03-20T21:27:09.121Z,0
2018-03-20T21:28:09.731Z,0
2018-03-20T21:29:10.256Z,0
2018-03-20T21:30:10.818Z,0
2018-03-20T21:31:11.382Z,0
2018-03-20T21:32:11.956Z,0
2018-03-20T21:33:12.525Z,0
2018-03-20T21:34:13.096Z,0
2018-03-20T21:35:13.662Z,0
2018-03-20T21:36:14.225Z,0
2018-03-20T21:37:14.791Z,0
2018-03-20T21:38:15.356Z,0
2018-03-20T21:39:15.920Z,0
2018-03-20T21:40:16.484Z,0
2018-03-20T21:41:17.047Z,0
2018-03-20T21:42:17.612Z,0
2018-03-20T21:43:18.175Z,0
2018-03-20T21:44:18.740Z,0
2018-03-20T21:45:19.304Z,0
2018-03-20T21:46:19.882Z,0
2018-03-20T21:47:20.445Z,0
2018-03-20T21:48:21.010Z,0
2018-03-20T21:49:21.574Z,0
2018-03-20T21:50:22.139Z,0
2018-03-20T21:51:22.702Z,0
2018-03-20T21:52:23.267Z,0
2018-03-20T21:53:23.843Z,0
2018-03-20T21:54:24.409Z,0
2018-03-20T21:55:24.976Z,0
2018-03-20T21:56:25.537Z,0
2018-03-20T21:57:26.102Z,0
2018-03-20T21:58:26.667Z,0
2018-03-20T21:59:27.232Z,0
2018-03-20T22:00:27.812Z,0
2018-03-20T22:01:28.383Z,0
2018-03-20T22:02:28.954Z,0
2018-03-20T22:03:29.522Z,0
2018-03-20T22:04:30.089Z,0
2018-03-20T22:05:30.650Z,0
2018-03-20T22:06:31.227Z,0
2018-03-20T22:07:31.790Z,0
2018-03-20T22:08:32.355Z,0
2018-03-20T22:09:32.919Z,0
2018-03-20T22:10:33.490Z,0
2018-03-20T22:11:34.050Z,0
2018-03-20T22:12:34.617Z,0
2018-03-20T22:13:35.182Z,0
2018-03-20T22:14:35.747Z,0
2018-03-20T22:15:36.310Z,0
2018-03-20T22:16:36.877Z,0
2018-03-20T22:17:37.441Z,0
2018-03-20T22:18:38.005Z,0
2018-03-20T22:19:38.571Z,0
2018-03-20T22:20:39.132Z,0
2018-03-20T22:21:39.696Z,0
2018-03-20T22:22:40.272Z,0
2018-03-20T22:23:40.842Z,0
2018-03-20T22:24:41.404Z,0
2018-03-20T22:25:41.968Z,0
2018-03-20T22:26:42.532Z,0
2018-03-20T22:27:43.101Z,0
2018-03-20T22:28:43.662Z,0
2018-03-20T22:29:44.226Z,0
2018-03-20T22:30:44.790Z,0
2018-03-20T22:31:45.353Z,0
2018-03-20T22:32:45.918Z,0
2018-03-20T22:33:46.482Z,0
2018-03-20T22:34:47.045Z,0
2018-03-20T22:35:47.608Z,0
2018-03-20T22:36:48.172Z,0
2018-03-20T22:37:48.735Z,0
2018-03-20T22:38:49.303Z,0
2018-03-20T22:39:49.861Z,0
2018-03-20T22:40:50.423Z,0
2018-03-20T22:41:50.987Z,0
2018-03-20T22:42:51.551Z,0
2018-03-20T22:43:52.126Z,0
2018-03-20T22:44:52.702Z,0
2018-03-20T22:45:53.267Z,0
2018-03-20T22:46:53.832Z,0
2018-03-20T22:47:54.398Z,0
2018-03-20T22:48:54.960Z,0
2018-03-20T22:49:55.525Z,0
2018-03-20T22:50:56.089Z,0
2018-03-20T22:51:56.653Z,0
2018-03-20T22:52:57.217Z,0
2018-03-20T22:53:57.780Z,0
2018-03-20T22:54:58.356Z,0
2018-03-20T22:55:58.920Z,0
2018-03-20T22:56:59.487Z,0
2018-03-20T22:58:00.052Z,0
2018-03-20T22:59:00.623Z,0
2018-03-20T23:00:01.200Z,0
2018-03-20T23:01:01.763Z,0
2018-03-20T23:02:02.330Z,0
2018-03-20T23:03:02.892Z,0
2018-03-20T23:04:03.466Z,0
2018-03-20T23:05:04.032Z,0
2018-03-20T23:06:04.596Z,0
2018-03-20T23:07:05.160Z,0
2018-03-20T23:08:05.723Z,0
2018-03-20T23:09:06.288Z,0
2018-03-20T23:10:06.866Z,0
2018-03-20T23:11:07.428Z,0
2018-03-20T23:12:07.993Z,0
2018-03-20T23:13:08.557Z,0
2018-03-20T23:14:09.123Z,0
2018-03-20T23:15:09.704Z,0
2018-03-20T23:16:10.262Z,0
2018-03-20T23:17:10.831Z,0
2018-03-20T23:18:11.391Z,0
2018-03-20T23:19:11.956Z,0
2018-03-20T23:20:12.520Z,0
2018-03-20T23:21:13.096Z,0
2018-03-20T23:22:13.670Z,0
2018-03-20T23:23:14.234Z,0
2018-03-20T23:24:14.798Z,0
2018-03-20T23:25:15.361Z,0
2018-03-20T23:26:15.923Z,0
2018-03-20T23:27:16.486Z,0
2018-03-20T23:28:17.050Z,0
2018-03-20T23:29:17.613Z,0
2018-03-20T23:30:18.187Z,0
2018-03-20T23:31:18.752Z,0
2018-03-20T23:32:19.317Z,0
2018-03-20T23:33:19.881Z,0
2018-03-20T23:34:20.444Z,0
2018-03-20T23:35:21.021Z,0
2018-03-20T23:36:21.586Z,0
2018-03-20T23:37:22.150Z,0
2018-03-20T23:38:22.714Z,0
2018-03-20T23:39:23.280Z,0
2018-03-20T23:40:23.842Z,0
2018-03-20T23:41:24.404Z,0
2018-03-20T23:42:24.971Z,0
2018-03-20T23:43:25.543Z,0
2018-03-20T23:44:26.114Z,0
2018-03-20T23:45:26.674Z,0
2018-03-20T23:46:27.238Z,0
2018-03-20T23:47:27.813Z,0
2018-03-20T23:48:28.379Z,0
2018-03-20T23:49:28.954Z,0
2018-03-20T23:50:29.516Z,0
2018-03-20T23:51:30.082Z,0
2018-03-20T23:52:30.642Z,0
2018-03-20T23:53:31.206Z,0
2018-03-20T23:54:31.780Z,0
2018-03-20T23:55:32.344Z,0
2018-03-20T23:56:32.908Z,0
2018-03-20T23:57:33.475Z,0
2018-03-20T23:58:34.036Z,0
2018-03-20T23:59:34.600Z,0
